Time;durP1;ratioP1;P1;durP2;ratioP2;P2;SDS_P1;SDS_P2;PMS_P1;PMS_P2;Temp;Humidity;BMP_temperature;BMP_pressure;BME280_temperature;BME280_humidity;BME280_pressure;Samples;Min_cycle;Max_cycle;Signal;HPM_P1;HPM_P2
2023/01/09 00:01:50;;;;;;;0.67;0.37;;;;;;;;;;5011858;28;20014;-76
2023/01/09 00:04:16;;;;;;;1.57;0.30;;;;;;;;;;5011616;28;20021;-76
2023/01/09 00:06:42;;;;;;;1.13;0.30;;;;;;;;;;5010885;28;20025;-76
2023/01/09 00:09:07;;;;;;;3.17;0.50;;;;;;;;;;5011090;28;20032;-76
2023/01/09 00:11:33;;;;;;;0.97;0.30;;;;;;;;;;5012092;28;20101;-75
2023/01/09 00:13:58;;;;;;;0.87;0.33;;;;;;;;;;5011569;28;20449;-76
2023/01/09 00:16:23;;;;;;;0.73;0.33;;;;;;;;;;5011769;28;20465;-75
2023/01/09 00:18:49;;;;;;;1.30;0.40;;;;;;;;;;5011444;28;20092;-75
2023/01/09 00:21:14;;;;;;;1.70;0.50;;;;;;;;;;5011907;28;20384;-76
2023/01/09 00:23:40;;;;;;;0.60;0.30;;;;;;;;;;5010813;28;20037;-76
2023/01/09 00:26:08;;;;;;;0.83;0.40;;;;;;;;;;4993874;28;20026;-76
2023/01/09 00:28:33;;;;;;;2.07;0.30;;;;;;;;;;5011545;28;20028;-76
2023/01/09 00:30:59;;;;;;;0.93;0.40;;;;;;;;;;4993649;28;20097;-76
2023/01/09 00:33:27;;;;;;;2.10;0.40;;;;;;;;;;4993793;28;20025;-76
2023/01/09 00:35:52;;;;;;;1.03;0.43;;;;;;;;;;5011708;28;20037;-76
2023/01/09 00:38:17;;;;;;;1.20;0.50;;;;;;;;;;4993891;28;20026;-76
2023/01/09 00:40:42;;;;;;;2.90;0.60;;;;;;;;;;4993823;28;20072;-75
2023/01/09 00:43:08;;;;;;;3.97;0.40;;;;;;;;;;4994371;28;20037;-76
2023/01/09 00:45:33;;;;;;;1.70;0.50;;;;;;;;;;5015718;28;20350;-76
2023/01/09 00:48:02;;;;;;;1.77;0.50;;;;;;;;;;5015332;28;20376;-76
2023/01/09 00:50:30;;;;;;;2.27;0.40;;;;;;;;;;5015287;28;20028;-75
2023/01/09 00:52:56;;;;;;;3.30;0.60;;;;;;;;;;4997426;28;20021;-75
2023/01/09 00:55:22;;;;;;;1.47;0.60;;;;;;;;;;5015673;28;20136;-76
2023/01/09 00:57:47;;;;;;;7.13;1.00;;;;;;;;;;5015418;28;20041;-75
2023/01/09 01:00:12;;;;;;;9.03;1.00;;;;;;;;;;5013136;28;20071;-76
2023/01/09 01:02:38;;;;;;;6.90;1.00;;;;;;;;;;4996152;28;20030;-76
2023/01/09 01:07:47;;;;;;;4.37;1.07;;;;;;;;;;5015469;28;20338;-75
2023/01/09 01:10:15;;;;;;;3.20;1.20;;;;;;;;;;5014916;28;20040;-76
2023/01/09 01:12:40;;;;;;;4.87;1.40;;;;;;;;;;4997119;28;20013;-76
2023/01/09 01:15:07;;;;;;;8.97;1.87;;;;;;;;;;5014742;28;20040;-75
2023/01/09 01:17:33;;;;;;;5.27;1.63;;;;;;;;;;5012781;28;20038;-76
2023/01/09 01:19:58;;;;;;;4.20;1.40;;;;;;;;;;5013675;28;20515;-75
2023/01/09 01:22:23;;;;;;;9.20;1.80;;;;;;;;;;5014775;28;20121;-76
2023/01/09 01:24:49;;;;;;;4.80;1.63;;;;;;;;;;4997454;28;20076;-76
2023/01/09 01:27:14;;;;;;;7.67;1.57;;;;;;;;;;5014862;28;20330;-76
2023/01/09 01:29:39;;;;;;;5.93;1.73;;;;;;;;;;4996515;28;20026;-76
2023/01/09 01:32:04;;;;;;;3.80;1.30;;;;;;;;;;5014749;28;20021;-76
2023/01/09 01:34:30;;;;;;;4.77;1.43;;;;;;;;;;5014558;28;20028;-76
2023/01/09 01:36:55;;;;;;;3.80;1.33;;;;;;;;;;5012892;28;20071;-76
2023/01/09 01:39:20;;;;;;;7.23;1.53;;;;;;;;;;5014244;28;20358;-76
2023/01/09 01:41:45;;;;;;;3.00;1.03;;;;;;;;;;5014366;28;20125;-76
2023/01/09 01:44:30;;;;;;;3.83;1.23;;;;;;;;;;4995003;28;20605;-76
2023/01/09 01:46:55;;;;;;;3.73;1.40;;;;;;;;;;5002808;28;20022;-76
2023/01/09 01:49:20;;;;;;;4.27;1.20;;;;;;;;;;5014051;28;20052;-76
2023/01/09 01:51:48;;;;;;;6.47;1.23;;;;;;;;;;5014127;28;20041;-76
2023/01/09 01:54:18;;;;;;;2.50;1.00;;;;;;;;;;5012638;28;20033;-75
2023/01/09 01:56:45;;;;;;;1.80;0.93;;;;;;;;;;5014359;28;20052;-76
2023/01/09 01:59:20;;;;;;;3.33;1.00;;;;;;;;;;4995167;28;20596;-75
2023/01/09 02:01:47;;;;;;;7.40;1.13;;;;;;;;;;5014382;28;20330;-76
2023/01/09 02:04:13;;;;;;;4.87;1.50;;;;;;;;;;4996392;28;20045;-76
2023/01/09 02:06:38;;;;;;;5.80;1.13;;;;;;;;;;4996300;28;20049;-76
2023/01/09 02:09:04;;;;;;;6.13;1.10;;;;;;;;;;5012556;28;20084;-76
2023/01/09 02:11:30;;;;;;;2.37;1.00;;;;;;;;;;4996397;28;20033;-76
2023/01/09 02:13:55;;;;;;;3.43;1.00;;;;;;;;;;4995870;28;20448;-76
2023/01/09 02:16:23;;;;;;;5.80;0.90;;;;;;;;;;5013890;28;20026;-75
2023/01/09 02:18:52;;;;;;;6.20;1.07;;;;;;;;;;5013212;28;20045;-76
2023/01/09 02:21:21;;;;;;;4.47;1.00;;;;;;;;;;4996172;28;20115;-76
2023/01/09 02:23:52;;;;;;;2.27;1.07;;;;;;;;;;4995944;28;20022;-76
2023/01/09 02:26:33;;;;;;;3.67;1.53;;;;;;;;;;4994940;28;20080;-76
2023/01/09 02:29:13;;;;;;;7.30;0.87;;;;;;;;;;4995347;28;20275;-76
2023/01/09 02:32:04;;;;;;;5.87;1.00;;;;;;;;;;5001680;28;20104;-76
2023/01/09 02:34:53;;;;;;;6.80;0.70;;;;;;;;;;4965571;28;20052;-76
2023/01/09 02:37:37;;;;;;;3.60;0.80;;;;;;;;;;5002606;28;20029;-76
2023/01/09 02:40:06;;;;;;;4.13;0.80;;;;;;;;;;4983076;28;20026;-75
2023/01/09 02:42:32;;;;;;;5.13;1.07;;;;;;;;;;5013494;28;20026;-76
2023/01/09 02:44:57;;;;;;;5.27;0.97;;;;;;;;;;5012025;28;20032;-76
2023/01/09 02:47:22;;;;;;;7.27;0.63;;;;;;;;;;4995421;28;20018;-76
2023/01/09 02:49:52;;;;;;;5.50;0.70;;;;;;;;;;5012985;28;20017;-76
2023/01/09 02:52:36;;;;;;;5.67;0.93;;;;;;;;;;4995591;28;20026;-76
2023/01/09 02:55:04;;;;;;;2.33;0.70;;;;;;;;;;5012761;28;20009;-76
2023/01/09 02:57:29;;;;;;;6.17;0.77;;;;;;;;;;4995156;28;20022;-76
2023/01/09 03:00:02;;;;;;;4.53;0.97;;;;;;;;;;5012826;28;20028;-75
2023/01/09 03:02:48;;;;;;;6.30;0.70;;;;;;;;;;4994962;28;20397;-76
2023/01/09 03:05:27;;;;;;;2.33;0.70;;;;;;;;;;4980381;28;20467;-75
2023/01/09 03:07:55;;;;;;;7.53;1.10;;;;;;;;;;5012571;28;20088;-76
2023/01/09 03:10:26;;;;;;;9.30;1.27;;;;;;;;;;5012398;28;20151;-76
2023/01/09 03:12:53;;;;;;;3.43;0.80;;;;;;;;;;4995268;28;20484;-76
2023/01/09 03:15:20;;;;;;;3.53;0.80;;;;;;;;;;5012758;28;20022;-75
2023/01/09 03:17:47;;;;;;;4.93;0.90;;;;;;;;;;5011984;28;20067;-76
2023/01/09 03:20:14;;;;;;;4.37;0.90;;;;;;;;;;4993964;28;20480;-76
2023/01/09 03:22:44;;;;;;;1.37;0.60;;;;;;;;;;5012811;28;20488;-75
2023/01/09 03:25:09;;;;;;;1.20;0.60;;;;;;;;;;5012410;28;20022;-76
2023/01/09 03:27:34;;;;;;;3.57;0.50;;;;;;;;;;5012303;28;20037;-76
2023/01/09 03:29:59;;;;;;;4.17;0.80;;;;;;;;;;5011343;28;20404;-75
2023/01/09 03:32:26;;;;;;;4.13;1.00;;;;;;;;;;4994360;28;20029;-76
2023/01/09 03:34:51;;;;;;;3.40;0.90;;;;;;;;;;4994501;28;20037;-76
2023/01/09 03:37:17;;;;;;;3.57;0.77;;;;;;;;;;4993467;28;20029;-75
2023/01/09 03:39:42;;;;;;;5.07;0.60;;;;;;;;;;4994255;28;20022;-76
2023/01/09 03:42:07;;;;;;;4.57;0.50;;;;;;;;;;4994474;28;20021;-75
2023/01/09 03:44:32;;;;;;;1.83;0.60;;;;;;;;;;5009441;28;20022;-75
2023/01/09 03:46:57;;;;;;;9.13;0.67;;;;;;;;;;4994340;28;20018;-76
2023/01/09 03:49:23;;;;;;;7.43;0.70;;;;;;;;;;5011821;28;20018;-75
2023/01/09 03:51:48;;;;;;;4.50;0.87;;;;;;;;;;5012082;28;20024;-75
2023/01/09 03:54:13;;;;;;;3.83;1.23;;;;;;;;;;4994586;28;20377;-75
2023/01/09 03:56:38;;;;;;;7.90;1.10;;;;;;;;;;5009650;28;20010;-75
2023/01/09 03:59:03;;;;;;;5.10;0.70;;;;;;;;;;4994186;28;20034;-75
2023/01/09 04:01:29;;;;;;;14.17;2.40;;;;;;;;;;5011760;28;20357;-76
2023/01/09 04:03:54;;;;;;;6.47;1.00;;;;;;;;;;4994117;28;20045;-76
2023/01/09 04:06:19;;;;;;;2.53;0.80;;;;;;;;;;5011784;28;20022;-76
2023/01/09 04:08:45;;;;;;;4.50;0.90;;;;;;;;;;5011488;28;20097;-76
2023/01/09 04:11:10;;;;;;;4.60;0.93;;;;;;;;;;5011854;28;20018;-76
2023/01/09 04:13:35;;;;;;;3.73;0.70;;;;;;;;;;5010890;28;20240;-76
2023/01/09 04:16:00;;;;;;;3.17;0.80;;;;;;;;;;5011507;28;20547;-76
2023/01/09 04:18:26;;;;;;;5.70;1.10;;;;;;;;;;5011695;28;20037;-75
2023/01/09 04:20:51;;;;;;;4.60;0.80;;;;;;;;;;5011729;28;20014;-76
2023/01/09 04:23:16;;;;;;;5.40;0.50;;;;;;;;;;4993738;28;20037;-76
2023/01/09 04:25:41;;;;;;;4.37;0.60;;;;;;;;;;4994445;28;20496;-76
2023/01/09 04:28:06;;;;;;;6.07;0.73;;;;;;;;;;5011316;28;20018;-76
2023/01/09 04:30:32;;;;;;;7.73;0.80;;;;;;;;;;5011621;28;20068;-76
2023/01/09 04:32:57;;;;;;;8.27;1.00;;;;;;;;;;5010812;28;20021;-76
2023/01/09 04:35:22;;;;;;;5.53;0.93;;;;;;;;;;4993687;28;20025;-76
2023/01/09 04:37:47;;;;;;;3.83;0.80;;;;;;;;;;4993835;28;20037;-75
2023/01/09 04:40:13;;;;;;;5.23;1.10;;;;;;;;;;5011503;28;20018;-76
2023/01/09 04:42:38;;;;;;;4.70;0.70;;;;;;;;;;4994000;28;20032;-76
2023/01/09 04:45:05;;;;;;;4.60;1.00;;;;;;;;;;4992653;28;20048;-76
2023/01/09 04:47:30;;;;;;;3.88;0.90;;;;;;;;;;5011489;28;20494;-76
2023/01/09 04:49:55;;;;;;;6.17;0.87;;;;;;;;;;5010179;28;20021;-76
2023/01/09 04:52:21;;;;;;;5.67;0.60;;;;;;;;;;5011680;28;20055;-76
2023/01/09 04:54:46;;;;;;;4.37;0.63;;;;;;;;;;5011152;28;20026;-75
2023/01/09 04:57:11;;;;;;;3.70;0.90;;;;;;;;;;5011414;28;20377;-76
2023/01/09 04:59:36;;;;;;;6.67;1.00;;;;;;;;;;4993381;28;20034;-75
2023/01/09 05:02:01;;;;;;;4.03;0.73;;;;;;;;;;5011394;28;20342;-76
2023/01/09 05:04:27;;;;;;;4.17;0.60;;;;;;;;;;5011291;28;20053;-76
2023/01/09 05:06:52;;;;;;;6.73;1.00;;;;;;;;;;5010890;28;20032;-75
2023/01/09 05:09:17;;;;;;;4.95;0.77;;;;;;;;;;5010004;28;20531;-76
2023/01/09 05:11:42;;;;;;;3.93;1.07;;;;;;;;;;4993410;28;20026;-76
2023/01/09 05:14:08;;;;;;;6.53;1.20;;;;;;;;;;5010892;28;20018;-75
2023/01/09 05:16:33;;;;;;;9.07;1.27;;;;;;;;;;4993471;28;20375;-76
2023/01/09 05:18:59;;;;;;;8.13;1.00;;;;;;;;;;5010878;28;20149;-76
2023/01/09 05:21:25;;;;;;;12.03;1.20;;;;;;;;;;5011009;28;20014;-75
2023/01/09 05:23:50;;;;;;;5.77;1.10;;;;;;;;;;4993281;28;20057;-75
2023/01/09 05:26:15;;;;;;;8.43;1.00;;;;;;;;;;5010523;28;20472;-75
2023/01/09 05:28:40;;;;;;;4.80;1.10;;;;;;;;;;4994237;28;20120;-76
2023/01/09 05:31:05;;;;;;;5.47;1.10;;;;;;;;;;5014884;28;20054;-76
2023/01/09 05:33:31;;;;;;;9.70;1.40;;;;;;;;;;5012416;28;20148;-75
2023/01/09 05:35:56;;;;;;;7.47;1.50;;;;;;;;;;5014581;28;20029;-76
2023/01/09 05:38:22;;;;;;;6.20;1.07;;;;;;;;;;5014365;28;20545;-76
2023/01/09 05:40:47;;;;;;;4.97;1.13;;;;;;;;;;5014468;28;20102;-76
2023/01/09 05:43:13;;;;;;;10.02;1.20;;;;;;;;;;5013172;28;20032;-75
2023/01/09 05:45:38;;;;;;;7.07;1.00;;;;;;;;;;5014077;28;20099;-75
2023/01/09 05:48:03;;;;;;;8.17;1.30;;;;;;;;;;5014327;28;20022;-76
2023/01/09 05:50:28;;;;;;;7.77;1.10;;;;;;;;;;5014100;28;20394;-75
2023/01/09 05:52:53;;;;;;;9.23;2.53;;;;;;;;;;4996537;28;20481;-76
2023/01/09 05:55:19;;;;;;;10.82;1.40;;;;;;;;;;4996536;28;20022;-75
2023/01/09 05:57:44;;;;;;;8.43;1.23;;;;;;;;;;4996425;28;20022;-75
2023/01/09 06:00:09;;;;;;;8.60;1.30;;;;;;;;;;4996203;28;20033;-75
2023/01/09 06:02:35;;;;;;;3.92;0.98;;;;;;;;;;4996517;28;20053;-76
2023/01/09 06:05:00;;;;;;;7.53;1.10;;;;;;;;;;5014053;28;20108;-75
2023/01/09 06:07:25;;;;;;;9.33;1.37;;;;;;;;;;5013757;28;20045;-75
2023/01/09 06:09:50;;;;;;;5.83;1.30;;;;;;;;;;5013673;28;20037;-75
2023/01/09 06:12:16;;;;;;;6.43;1.10;;;;;;;;;;4996186;28;20350;-75
2023/01/09 06:14:41;;;;;;;7.77;1.20;;;;;;;;;;5013816;28;20449;-76
2023/01/09 06:17:06;;;;;;;10.13;1.60;;;;;;;;;;5013755;28;20032;-75
2023/01/09 06:19:31;;;;;;;16.20;2.10;;;;;;;;;;5012533;28;20032;-75
2023/01/09 06:21:56;;;;;;;9.30;1.40;;;;;;;;;;4996170;28;20338;-75
2023/01/09 06:24:21;;;;;;;6.80;1.20;;;;;;;;;;4995663;28;20108;-75
2023/01/09 06:26:47;;;;;;;6.97;1.60;;;;;;;;;;5013621;28;20025;-75
2023/01/09 06:29:12;;;;;;;7.85;1.20;;;;;;;;;;5013075;28;20061;-75
2023/01/09 06:31:37;;;;;;;4.80;1.45;;;;;;;;;;5013507;28;20042;-75
2023/01/09 06:34:02;;;;;;;6.53;1.03;;;;;;;;;;4995478;28;20461;-76
2023/01/09 06:36:27;;;;;;;6.00;1.27;;;;;;;;;;5012079;28;20025;-75
2023/01/09 06:38:53;;;;;;;4.13;0.70;;;;;;;;;;5013374;28;20013;-75
2023/01/09 06:41:18;;;;;;;9.67;1.50;;;;;;;;;;5013025;28;20030;-75
2023/01/09 06:43:43;;;;;;;6.77;1.20;;;;;;;;;;5013328;28;20041;-75
2023/01/09 06:46:08;;;;;;;5.60;1.37;;;;;;;;;;5013202;28;20032;-76
2023/01/09 06:48:33;;;;;;;7.80;0.80;;;;;;;;;;5013020;28;20493;-75
2023/01/09 06:50:59;;;;;;;5.43;1.08;;;;;;;;;;5011648;28;20063;-76
2023/01/09 06:53:24;;;;;;;3.23;0.70;;;;;;;;;;5012846;28;20108;-76
2023/01/09 06:55:49;;;;;;;6.07;1.07;;;;;;;;;;4995429;28;20018;-75
2023/01/09 06:58:14;;;;;;;7.63;1.50;;;;;;;;;;5009390;28;20096;-76
2023/01/09 07:00:40;;;;;;;9.43;1.17;;;;;;;;;;5010257;28;20014;-75
2023/01/09 07:03:05;;;;;;;7.53;1.37;;;;;;;;;;5011427;28;20021;-75
2023/01/09 07:05:32;;;;;;;9.60;1.40;;;;;;;;;;5008307;28;20033;-75
2023/01/09 07:07:57;;;;;;;10.98;1.05;;;;;;;;;;5011683;28;20018;-75
2023/01/09 07:10:23;;;;;;;9.10;1.23;;;;;;;;;;5008868;28;20092;-75
2023/01/09 07:12:48;;;;;;;6.17;1.10;;;;;;;;;;5008749;28;20392;-75
2023/01/09 07:15:13;;;;;;;7.77;1.07;;;;;;;;;;5009513;28;20014;-75
2023/01/09 07:17:38;;;;;;;7.97;1.10;;;;;;;;;;5010645;28;20348;-75
2023/01/09 07:20:04;;;;;;;4.23;0.80;;;;;;;;;;5011268;28;20030;-75
2023/01/09 07:22:29;;;;;;;6.10;1.00;;;;;;;;;;5009771;28;20057;-75
2023/01/09 07:24:54;;;;;;;5.37;1.10;;;;;;;;;;5011034;28;20017;-75
2023/01/09 07:27:21;;;;;;;4.03;0.87;;;;;;;;;;4995878;28;20057;-75
2023/01/09 07:29:46;;;;;;;6.97;1.13;;;;;;;;;;5011397;28;20018;-75
2023/01/09 07:32:11;;;;;;;7.40;0.90;;;;;;;;;;5010428;28;20029;-75
2023/01/09 07:34:36;;;;;;;7.57;1.00;;;;;;;;;;5011528;28;20380;-75
2023/01/09 07:37:01;;;;;;;10.03;1.00;;;;;;;;;;5010815;28;20048;-75
2023/01/09 07:39:27;;;;;;;4.17;0.77;;;;;;;;;;4997529;28;20029;-75
2023/01/09 07:41:52;;;;;;;5.53;0.77;;;;;;;;;;5005532;28;20025;-75
2023/01/09 07:44:17;;;;;;;4.33;0.90;;;;;;;;;;5009748;28;20030;-75
2023/01/09 07:46:42;;;;;;;10.10;1.10;;;;;;;;;;5009309;28;20026;-75
2023/01/09 07:49:07;;;;;;;5.93;0.83;;;;;;;;;;5010253;28;20056;-75
2023/01/09 07:51:33;;;;;;;4.22;0.70;;;;;;;;;;5007989;28;20010;-75
2023/01/09 07:53:58;;;;;;;6.73;1.23;;;;;;;;;;5009384;28;20369;-75
2023/01/09 07:56:23;;;;;;;4.60;0.70;;;;;;;;;;5010980;28;20017;-76
2023/01/09 07:58:54;;;;;;;3.40;0.90;;;;;;;;;;5012242;28;20080;-76
2023/01/09 08:01:19;;;;;;;8.05;1.00;;;;;;;;;;4994435;28;20032;-76
2023/01/09 08:03:44;;;;;;;4.20;1.13;;;;;;;;;;5010546;28;20018;-76
2023/01/09 08:06:09;;;;;;;7.40;0.90;;;;;;;;;;4994457;28;20010;-76
2023/01/09 08:08:34;;;;;;;6.63;1.00;;;;;;;;;;4994483;28;20113;-76
2023/01/09 08:11:00;;;;;;;5.47;0.70;;;;;;;;;;5008911;28;20413;-76
2023/01/09 08:13:25;;;;;;;6.20;0.80;;;;;;;;;;4993628;28;20109;-76
2023/01/09 08:15:50;;;;;;;6.53;1.47;;;;;;;;;;5010685;28;20036;-76
2023/01/09 08:18:15;;;;;;;4.73;0.73;;;;;;;;;;5010810;28;20022;-76
2023/01/09 08:20:41;;;;;;;4.43;0.98;;;;;;;;;;4995032;28;20033;-76
2023/01/09 08:23:06;;;;;;;9.73;1.10;;;;;;;;;;4992432;28;20036;-76
2023/01/09 08:25:32;;;;;;;7.65;0.80;;;;;;;;;;5011941;28;20025;-76
2023/01/09 08:28:00;;;;;;;7.35;1.35;;;;;;;;;;4996862;28;20370;-75
2023/01/09 08:30:25;;;;;;;7.03;1.20;;;;;;;;;;4991464;28;20026;-76
2023/01/09 08:32:51;;;;;;;3.17;0.70;;;;;;;;;;4994303;28;20291;-76
2023/01/09 08:35:18;;;;;;;6.03;0.98;;;;;;;;;;4994302;28;20108;-76
2023/01/09 08:37:44;;;;;;;4.00;0.80;;;;;;;;;;4994179;28;20115;-76
2023/01/09 08:40:10;;;;;;;4.03;0.90;;;;;;;;;;4994273;28;20018;-76
2023/01/09 08:48:06;;;;;;;5.87;0.83;;;;;;;;;;4996697;28;20092;-76
2023/01/09 08:50:34;;;;;;;6.05;1.10;;;;;;;;;;5011952;28;20457;-76
2023/01/09 08:53:01;;;;;;;4.40;0.93;;;;;;;;;;4993873;28;20033;-76
2023/01/09 08:55:26;;;;;;;5.33;0.70;;;;;;;;;;4994026;28;20048;-76
2023/01/09 08:57:52;;;;;;;8.47;1.37;;;;;;;;;;4994110;28;20026;-76
2023/01/09 09:00:20;;;;;;;6.53;1.00;;;;;;;;;;5011499;28;20476;-76
2023/01/09 09:03:04;;;;;;;7.07;0.95;;;;;;;;;;4993760;28;20473;-77
2023/01/09 09:05:30;;;;;;;5.37;0.90;;;;;;;;;;4997653;28;20026;-76
2023/01/09 09:07:55;;;;;;;7.13;1.00;;;;;;;;;;4997891;28;20184;-76
2023/01/09 09:10:25;;;;;;;6.73;1.00;;;;;;;;;;5015440;28;20165;-76
2023/01/09 09:12:51;;;;;;;7.63;1.33;;;;;;;;;;4997173;28;20022;-76
2023/01/09 09:15:22;;;;;;;4.60;0.77;;;;;;;;;;5013568;28;20084;-76
2023/01/09 09:17:56;;;;;;;6.07;1.17;;;;;;;;;;5013038;28;20014;-76
2023/01/09 09:20:22;;;;;;;5.47;0.87;;;;;;;;;;4997494;28;20108;-76
2023/01/09 09:22:47;;;;;;;6.90;1.55;;;;;;;;;;4996797;28;20124;-76
2023/01/09 09:25:14;;;;;;;7.03;1.00;;;;;;;;;;4997616;28;20030;-76
2023/01/09 09:27:41;;;;;;;5.27;0.97;;;;;;;;;;4997345;28;20021;-76
2023/01/09 09:30:08;;;;;;;2.47;0.70;;;;;;;;;;4997580;28;20204;-76
2023/01/09 09:32:33;;;;;;;6.10;0.93;;;;;;;;;;4997252;28;20461;-76
2023/01/09 09:34:59;;;;;;;4.07;0.87;;;;;;;;;;5014996;28;20010;-76
2023/01/09 09:37:25;;;;;;;4.20;0.83;;;;;;;;;;4997196;28;20033;-76
2023/01/09 09:39:51;;;;;;;6.13;0.83;;;;;;;;;;4996009;28;20036;-76
2023/01/09 09:45:15;;;;;;;5.93;0.90;;;;;;;;;;5004296;28;20608;-77
2023/01/09 09:47:59;;;;;;;4.03;0.73;;;;;;;;;;4997646;28;20021;-76
2023/01/09 09:50:39;;;;;;;5.65;1.00;;;;;;;;;;5014587;28;20048;-75
2023/01/09 09:53:11;;;;;;;4.77;0.90;;;;;;;;;;4996809;28;20026;-76
2023/01/09 09:55:38;;;;;;;3.30;1.00;;;;;;;;;;5014466;28;20050;-76
2023/01/09 09:58:08;;;;;;;4.33;0.70;;;;;;;;;;4996673;28;20034;-76
2023/01/09 10:00:33;;;;;;;2.90;0.60;;;;;;;;;;4996838;28;20030;-76
2023/01/09 10:03:02;;;;;;;2.37;0.70;;;;;;;;;;5014462;28;20084;-76
2023/01/09 10:05:35;;;;;;;2.80;0.60;;;;;;;;;;5013566;28;20481;-76
2023/01/09 10:08:20;;;;;;;5.17;0.73;;;;;;;;;;5014482;28;20385;-76
2023/01/09 10:10:49;;;;;;;2.97;0.60;;;;;;;;;;4996119;28;20072;-76
2023/01/09 10:16:07;;;;;;;2.20;0.40;;;;;;;;;;5013514;28;20093;-76
2023/01/09 10:18:41;;;;;;;3.20;0.82;;;;;;;;;;4996499;28;20037;-76
2023/01/09 10:21:18;;;;;;;1.03;0.60;;;;;;;;;;4996517;28;20451;-76
2023/01/09 10:23:46;;;;;;;4.40;0.70;;;;;;;;;;5014531;28;20022;-76
2023/01/09 10:26:23;;;;;;;2.27;0.60;;;;;;;;;;4996311;28;20423;-76
2023/01/09 10:28:57;;;;;;;3.20;0.80;;;;;;;;;;4996451;28;20378;-76
2023/01/09 10:31:22;;;;;;;2.40;0.80;;;;;;;;;;5012453;28;20021;-76
2023/01/09 10:33:56;;;;;;;4.13;0.60;;;;;;;;;;4996162;28;20453;-76
2023/01/09 10:36:21;;;;;;;5.27;0.70;;;;;;;;;;4996154;28;20030;-76
2023/01/09 10:38:47;;;;;;;4.00;0.73;;;;;;;;;;5013832;28;20113;-76
2023/01/09 10:41:32;;;;;;;5.80;0.87;;;;;;;;;;5013294;28;20503;-76
2023/01/09 10:44:01;;;;;;;2.13;0.80;;;;;;;;;;4996058;28;20030;-76
2023/01/09 10:46:28;;;;;;;5.10;0.93;;;;;;;;;;5009238;28;20618;-76
2023/01/09 10:48:55;;;;;;;2.03;0.80;;;;;;;;;;5012316;28;20488;-76
2023/01/09 10:51:22;;;;;;;1.73;0.60;;;;;;;;;;4995611;28;20539;-76
2023/01/09 10:53:50;;;;;;;3.37;0.90;;;;;;;;;;4976371;28;20022;-76
2023/01/09 10:56:35;;;;;;;3.67;0.90;;;;;;;;;;4989760;28;20461;-76
2023/01/09 10:59:04;;;;;;;8.70;1.00;;;;;;;;;;4995129;28;20482;-76
2023/01/09 11:01:33;;;;;;;2.00;0.70;;;;;;;;;;5009087;28;21516;-76
2023/01/09 11:04:01;;;;;;;4.20;0.98;;;;;;;;;;5010215;28;20427;-75
2023/01/09 11:06:46;;;;;;;4.33;1.00;;;;;;;;;;5011328;28;20494;-76
2023/01/09 11:09:15;;;;;;;2.73;0.80;;;;;;;;;;4994902;28;20080;-76
2023/01/09 11:11:44;;;;;;;4.10;0.93;;;;;;;;;;5012378;28;20703;-76
2023/01/09 11:14:26;;;;;;;3.17;0.93;;;;;;;;;;4995370;28;20091;-76
2023/01/09 11:16:57;;;;;;;1.60;0.68;;;;;;;;;;5012668;28;20502;-77
2023/01/09 11:19:23;;;;;;;1.03;0.60;;;;;;;;;;5010540;28;20022;-76
2023/01/09 11:22:05;;;;;;;4.78;1.10;;;;;;;;;;5011194;28;20037;-76
2023/01/09 11:24:30;;;;;;;2.35;0.75;;;;;;;;;;5012529;28;20469;-76
2023/01/09 11:27:22;;;;;;;5.30;1.43;;;;;;;;;;5012082;28;20075;-76
2023/01/09 11:30:02;;;;;;;5.80;1.00;;;;;;;;;;5012234;28;20389;-76
2023/01/09 11:32:28;;;;;;;2.73;0.77;;;;;;;;;;4995142;28;20112;-76
2023/01/09 11:34:53;;;;;;;5.68;1.00;;;;;;;;;;4994455;28;20060;-77
2023/01/09 11:37:23;;;;;;;4.30;0.77;;;;;;;;;;4993579;28;20492;-76
2023/01/09 11:39:48;;;;;;;5.60;1.03;;;;;;;;;;5010969;28;20503;-77
2023/01/09 11:42:49;;;;;;;2.92;0.80;;;;;;;;;;5012602;28;20017;-76
2023/01/09 11:45:16;;;;;;;6.68;1.13;;;;;;;;;;5009176;28;20619;-76
2023/01/09 11:47:42;;;;;;;3.10;1.00;;;;;;;;;;4994858;28;20029;-76
2023/01/09 11:50:15;;;;;;;2.00;0.80;;;;;;;;;;4993959;28;20338;-77
2023/01/09 11:52:41;;;;;;;4.17;1.43;;;;;;;;;;4996851;28;20017;-76
2023/01/09 11:55:10;;;;;;;2.63;0.90;;;;;;;;;;5010768;28;20025;-77
2023/01/09 11:57:36;;;;;;;3.47;1.10;;;;;;;;;;4998180;28;20032;-77
2023/01/09 12:00:12;;;;;;;4.45;1.10;;;;;;;;;;4993442;28;20049;-77
2023/01/09 12:02:40;;;;;;;4.30;1.40;;;;;;;;;;5011975;28;20037;-77
2023/01/09 12:05:29;;;;;;;6.83;1.23;;;;;;;;;;4995932;28;20026;-77
2023/01/09 12:08:09;;;;;;;3.37;1.00;;;;;;;;;;4977207;28;20042;-77
2023/01/09 12:10:35;;;;;;;3.70;1.20;;;;;;;;;;5010769;28;20062;-77
2023/01/09 12:13:19;;;;;;;4.43;1.30;;;;;;;;;;4993574;28;20018;-77
2023/01/09 12:16:00;;;;;;;4.63;1.10;;;;;;;;;;5004883;28;20028;-77
2023/01/09 12:18:40;;;;;;;6.23;1.43;;;;;;;;;;5009215;28;20048;-76
2023/01/09 12:21:24;;;;;;;6.78;1.60;;;;;;;;;;4997061;28;20117;-76
2023/01/09 12:23:59;;;;;;;3.28;1.30;;;;;;;;;;5008792;28;20025;-76
2023/01/09 12:26:29;;;;;;;9.57;1.50;;;;;;;;;;5002281;28;20029;-77
2023/01/09 12:29:16;;;;;;;5.07;1.20;;;;;;;;;;4993766;28;20117;-77
2023/01/09 12:31:53;;;;;;;3.50;1.40;;;;;;;;;;4996705;28;20080;-77
2023/01/09 12:34:21;;;;;;;4.63;1.83;;;;;;;;;;4998494;28;20018;-77
2023/01/09 12:36:52;;;;;;;9.82;2.08;;;;;;;;;;4992682;28;20050;-77
2023/01/09 12:39:26;;;;;;;7.03;1.25;;;;;;;;;;5008951;28;20455;-77
2023/01/09 12:42:03;;;;;;;7.55;1.80;;;;;;;;;;5012294;28;20370;-77
2023/01/09 12:44:31;;;;;;;7.82;1.77;;;;;;;;;;5011650;28;20026;-77
2023/01/09 12:47:11;;;;;;;7.85;1.88;;;;;;;;;;5015739;28;20026;-77
2023/01/09 12:49:53;;;;;;;7.65;1.88;;;;;;;;;;5015274;28;20025;-77
2023/01/09 12:52:24;;;;;;;9.15;1.90;;;;;;;;;;5015817;28;20017;-77
2023/01/09 12:55:08;;;;;;;6.90;1.58;;;;;;;;;;4997467;28;20034;-77
2023/01/09 12:57:38;;;;;;;12.00;2.03;;;;;;;;;;4997853;28;20037;-77
2023/01/09 13:00:13;;;;;;;7.38;1.95;;;;;;;;;;4997721;28;20056;-77
2023/01/09 13:02:47;;;;;;;5.00;1.50;;;;;;;;;;4997829;28;20440;-77
2023/01/09 13:05:22;;;;;;;9.33;1.60;;;;;;;;;;4997498;28;20026;-77
2023/01/09 13:07:50;;;;;;;7.32;2.00;;;;;;;;;;5001247;28;20044;-77
2023/01/09 13:10:24;;;;;;;6.22;1.67;;;;;;;;;;5015245;28;20040;-77
2023/01/09 13:12:50;;;;;;;4.10;1.67;;;;;;;;;;5014132;28;20022;-77
2023/01/09 13:15:25;;;;;;;12.23;2.53;;;;;;;;;;4997434;28;20365;-77
2023/01/09 13:17:53;;;;;;;12.55;2.33;;;;;;;;;;4997531;28;20018;-77
2023/01/09 13:20:21;;;;;;;5.77;1.90;;;;;;;;;;5015175;28;20437;-77
2023/01/09 13:22:49;;;;;;;9.53;1.87;;;;;;;;;;5015177;28;20397;-77
2023/01/09 13:25:24;;;;;;;13.00;2.20;;;;;;;;;;5015050;28;20401;-77
2023/01/09 13:27:55;;;;;;;7.53;2.03;;;;;;;;;;4997106;28;20516;-77
2023/01/09 13:30:45;;;;;;;9.32;2.17;;;;;;;;;;4996777;28;20054;-77
2023/01/09 13:33:19;;;;;;;6.72;2.03;;;;;;;;;;4994157;28;20034;-77
2023/01/09 13:35:49;;;;;;;5.78;2.17;;;;;;;;;;4997041;28;20101;-77
2023/01/09 13:38:17;;;;;;;8.82;2.35;;;;;;;;;;4997041;28;20018;-77
2023/01/09 13:40:42;;;;;;;8.75;2.28;;;;;;;;;;4997116;28;20101;-77
2023/01/09 13:43:08;;;;;;;13.40;2.55;;;;;;;;;;4996824;28;20713;-77
2023/01/09 13:45:35;;;;;;;3.35;1.80;;;;;;;;;;4994028;28;20111;-77
2023/01/09 13:48:16;;;;;;;7.38;2.10;;;;;;;;;;4996542;28;20171;-77
2023/01/09 13:50:42;;;;;;;7.88;2.63;;;;;;;;;;5013953;28;20532;-77
2023/01/09 13:53:16;;;;;;;10.25;2.40;;;;;;;;;;4996458;28;20166;-77
2023/01/09 13:56:01;;;;;;;10.18;3.33;;;;;;;;;;4996608;28;20029;-77
2023/01/09 13:58:45;;;;;;;6.40;2.20;;;;;;;;;;5014074;28;20029;-77
2023/01/09 14:01:22;;;;;;;9.38;2.60;;;;;;;;;;5014409;28;20053;-77
2023/01/09 14:04:07;;;;;;;7.47;2.47;;;;;;;;;;5014106;28;20010;-77
2023/01/09 14:06:33;;;;;;;15.05;2.63;;;;;;;;;;5013172;28;20026;-77
2023/01/09 14:09:30;;;;;;;5.10;2.30;;;;;;;;;;4996063;28;20018;-77
2023/01/09 14:12:03;;;;;;;13.57;2.70;;;;;;;;;;4991032;28;20366;-77
2023/01/09 14:14:31;;;;;;;14.00;2.40;;;;;;;;;;4996262;28;20058;-77
2023/01/09 14:16:58;;;;;;;4.95;2.05;;;;;;;;;;4996433;28;20132;-77
2023/01/09 14:19:37;;;;;;;15.30;2.50;;;;;;;;;;5013804;28;20067;-77
2023/01/09 14:22:03;;;;;;;13.27;3.20;;;;;;;;;;4979422;28;20022;-77
2023/01/09 14:24:38;;;;;;;10.35;2.38;;;;;;;;;;5009604;28;20112;-78
2023/01/09 14:27:03;;;;;;;15.07;3.20;;;;;;;;;;5013637;28;20053;-77
2023/01/09 14:29:38;;;;;;;10.95;2.47;;;;;;;;;;4996245;28;20053;-77
2023/01/09 14:32:26;;;;;;;8.57;2.97;;;;;;;;;;4996018;28;20014;-77
2023/01/09 14:34:56;;;;;;;11.85;2.60;;;;;;;;;;4996186;28;20018;-77
2023/01/09 14:37:21;;;;;;;7.40;2.20;;;;;;;;;;4995829;28;20041;-77
2023/01/09 14:39:48;;;;;;;12.60;2.55;;;;;;;;;;5010510;28;20030;-77
2023/01/09 14:42:20;;;;;;;9.45;3.08;;;;;;;;;;4995434;28;20080;-77
2023/01/09 14:45:01;;;;;;;7.55;2.40;;;;;;;;;;5007213;28;20400;-77
2023/01/09 14:47:40;;;;;;;13.20;3.53;;;;;;;;;;5012046;28;20105;-77
2023/01/09 14:50:06;;;;;;;13.88;2.95;;;;;;;;;;5012968;28;20018;-77
2023/01/09 14:52:37;;;;;;;10.68;3.03;;;;;;;;;;5012365;28;20076;-77
2023/01/09 14:55:04;;;;;;;9.85;2.95;;;;;;;;;;5012955;28;20068;-77
2023/01/09 14:57:31;;;;;;;6.43;2.72;;;;;;;;;;5007488;28;20029;-77
2023/01/09 15:00:16;;;;;;;12.30;3.55;;;;;;;;;;5009809;28;20029;-77
2023/01/09 15:02:42;;;;;;;9.55;2.78;;;;;;;;;;5011711;28;20029;-77
2023/01/09 15:05:09;;;;;;;10.48;2.80;;;;;;;;;;4995053;28;20817;-77